Terminal Aerodrome Forecast
Issued by NWS Amarillo, TX

Home | Current Version | Previous Version | Text Only | Print | Product List | Glossary On
Versions: 1 2 3 4 5 6 7 8 9 10 11 12 13 14 15 16 17 18 19 20 21 22 23 24 25 26
000
FTUS44 KAMA 290500
TAFAMA
TAF
KAMA 290520Z 2906/3006 15008KT P6SM SCT040 BKN300
     FM290900 16009KT P6SM SCT010 BKN300
     FM291600 17014G22KT P6SM SCT035 BKN300
     FM300000 15013KT P6SM VCTS SCT035CB BKN300=

USA.gov is the U.S. government's official web portal to all federal, state and local government web resources and services.